Time;durP1;ratioP1;P1;durP2;ratioP2;P2;SDS_P1;SDS_P2;PMS_P1;PMS_P2;Temp;Humidity;BMP_temperature;BMP_pressure;BME280_temperature;BME280_humidity;BME280_pressure;Samples;Min_cycle;Max_cycle;Signal;HPM_P1;HPM_P2
2022/06/29 00:02:25;;;;;;;21.17;15.32;;;16.80;99.90;;;;;;4841682;29;20069;-81
2022/06/29 00:04:53;;;;;;;18.90;13.20;;;16.70;99.90;;;;;;4840910;29;20058;-80
2022/06/29 00:07:21;;;;;;;23.70;13.40;;;16.70;99.90;;;;;;4840230;29;20050;-81
2022/06/29 00:09:49;;;;;;;13.95;12.02;;;16.80;99.90;;;;;;4838746;29;20049;-81
2022/06/29 00:12:17;;;;;;;17.08;12.25;;;16.70;99.90;;;;;;4841800;29;20051;-78
2022/06/29 00:14:44;;;;;;;16.55;12.63;;;16.70;99.90;;;;;;4840216;29;20543;-81
2022/06/29 00:17:18;;;;;;;21.13;13.05;;;16.70;99.90;;;;;;4823608;29;20062;-81
2022/06/29 00:19:46;;;;;;;20.05;11.90;;;16.70;99.90;;;;;;4841309;29;20784;-81
2022/06/29 00:22:14;;;;;;;15.90;12.23;;;16.80;99.90;;;;;;4841820;29;20054;-81
2022/06/29 00:24:42;;;;;;;14.77;11.25;;;16.70;99.90;;;;;;4840303;29;20058;-81
2022/06/29 00:27:10;;;;;;;15.50;13.88;;;16.80;99.90;;;;;;4841615;29;20389;-80
2022/06/29 00:29:38;;;;;;;18.13;12.55;;;16.80;99.90;;;;;;4839780;29;20053;-81
2022/06/29 00:32:07;;;;;;;19.10;11.15;;;16.80;99.90;;;;;;4841607;29;20050;-80
2022/06/29 00:34:35;;;;;;;22.73;12.50;;;16.80;99.90;;;;;;4837555;29;20061;-81
2022/06/29 00:37:04;;;;;;;16.63;13.48;;;16.80;99.90;;;;;;4839637;29;20050;-81
2022/06/29 00:39:33;;;;;;;14.50;11.18;;;16.80;99.90;;;;;;4840343;29;20049;-80
2022/06/29 00:42:01;;;;;;;13.18;11.20;;;16.70;99.90;;;;;;4841305;29;20531;-81
2022/06/29 00:44:29;;;;;;;19.52;11.13;;;16.70;99.90;;;;;;4841812;29;20484;-78
2022/06/29 00:46:59;;;;;;;12.27;10.65;;;16.80;99.90;;;;;;4840686;29;20057;-80
2022/06/29 00:49:31;;;;;;;21.00;14.23;;;16.80;99.90;;;;;;4847933;29;20053;-81
2022/06/29 00:52:26;;;;;;;13.50;11.50;;;16.70;99.90;;;;;;4849195;29;20500;-81
2022/06/29 00:55:24;;;;;;;24.45;11.82;;;16.70;99.90;;;;;;4840508;29;20053;-82
2022/06/29 00:57:54;;;;;;;14.20;12.35;;;16.70;99.90;;;;;;4839469;29;20046;-82
2022/06/29 01:00:22;;;;;;;15.57;10.20;;;16.70;99.90;;;;;;4841149;29;20060;-81
2022/06/29 01:02:50;;;;;;;16.35;12.57;;;16.70;99.90;;;;;;4809389;29;20283;-81
2022/06/29 01:05:18;;;;;;;20.08;11.48;;;16.70;99.90;;;;;;4833972;29;20481;-81
2022/06/29 01:07:46;;;;;;;14.70;10.65;;;16.70;99.90;;;;;;4840549;29;20484;-81
2022/06/29 01:10:14;;;;;;;15.93;9.75;;;16.70;99.90;;;;;;4839555;29;20053;-81
2022/06/29 01:12:42;;;;;;;12.63;9.63;;;16.80;99.90;;;;;;4839930;29;20062;-81
2022/06/29 01:15:11;;;;;;;14.15;9.63;;;16.70;99.90;;;;;;4839629;29;20057;-80
2022/06/29 01:17:39;;;;;;;11.93;9.77;;;16.70;99.90;;;;;;4822314;29;20079;-82
2022/06/29 01:20:09;;;;;;;12.27;9.50;;;16.80;99.90;;;;;;4839845;29;20049;-82
2022/06/29 01:22:40;;;;;;;13.50;10.07;;;16.70;99.90;;;;;;4825612;29;20038;-82
2022/06/29 01:25:09;;;;;;;10.57;8.68;;;16.70;99.90;;;;;;4839752;29;20053;-82
2022/06/29 01:27:37;;;;;;;12.00;9.77;;;16.70;99.90;;;;;;4840453;29;20038;-81
2022/06/29 01:30:09;;;;;;;9.40;7.82;;;16.80;99.90;;;;;;4839844;29;20050;-82
2022/06/29 01:32:40;;;;;;;14.07;9.60;;;16.70;99.90;;;;;;4839829;29;20054;-81
2022/06/29 01:35:12;;;;;;;12.48;9.40;;;16.80;99.90;;;;;;4840213;29;20059;-82
2022/06/29 01:37:41;;;;;;;11.77;9.32;;;16.80;99.90;;;;;;4839163;29;20046;-80
2022/06/29 01:40:11;;;;;;;12.40;8.32;;;16.70;99.90;;;;;;4839003;29;20057;-82
2022/06/29 01:42:39;;;;;;;17.80;10.63;;;16.80;99.90;;;;;;4820793;29;20050;-82
2022/06/29 01:45:08;;;;;;;12.23;10.88;;;16.70;99.90;;;;;;4815723;29;20079;-82
2022/06/29 01:47:36;;;;;;;11.38;9.05;;;16.70;99.90;;;;;;4838757;29;20042;-82
2022/06/29 01:50:04;;;;;;;17.17;12.85;;;16.70;99.90;;;;;;4822951;29;20060;-82
2022/06/29 01:52:34;;;;;;;12.57;10.52;;;16.70;99.90;;;;;;4824385;29;20506;-81
2022/06/29 01:55:09;;;;;;;10.82;9.52;;;16.70;99.90;;;;;;4840116;29;20038;-81
2022/06/29 01:57:48;;;;;;;13.77;10.85;;;16.70;99.90;;;;;;4838999;29;20045;-82
2022/06/29 02:00:22;;;;;;;13.02;10.52;;;16.60;99.90;;;;;;4841005;29;20525;-82
2022/06/29 02:02:53;;;;;;;45.50;12.65;;;16.60;99.90;;;;;;4840788;29;20042;-83
2022/06/29 02:05:26;;;;;;;14.50;10.13;;;16.60;99.90;;;;;;4830319;29;20050;-82
2022/06/29 02:07:56;;;;;;;12.60;9.95;;;16.60;99.90;;;;;;4835012;29;20046;-82
2022/06/29 02:10:36;;;;;;;10.82;8.60;;;16.70;99.90;;;;;;4833694;29;20499;-82
2022/06/29 02:13:04;;;;;;;18.15;10.15;;;16.70;99.90;;;;;;4841187;29;20054;-82
2022/06/29 02:15:32;;;;;;;13.20;9.82;;;16.70;99.90;;;;;;4814872;29;20042;-81
2022/06/29 02:18:03;;;;;;;15.35;12.60;;;16.70;99.90;;;;;;4828044;29;20058;-81
2022/06/29 02:20:31;;;;;;;15.85;9.57;;;16.70;99.90;;;;;;4841335;29;20812;-82
2022/06/29 02:22:59;;;;;;;16.13;10.65;;;16.70;99.90;;;;;;4840616;29;20038;-82
2022/06/29 02:25:27;;;;;;;13.95;10.07;;;16.70;99.90;;;;;;4840347;29;20058;-80
2022/06/29 02:27:55;;;;;;;15.23;10.10;;;16.70;99.90;;;;;;4839743;29;20050;-82
2022/06/29 02:34:43;;;;;;;14.40;10.57;;;16.70;99.90;;;;;;4840688;29;20052;-82
2022/06/29 02:35:57;;;;;;;15.05;10.80;;;16.60;99.90;;;;;;4839799;29;20042;-81
2022/06/29 02:38:25;;;;;;;14.75;11.15;;;16.60;99.90;;;;;;4840472;29;20512;-82
2022/06/29 02:40:53;;;;;;;13.07;10.68;;;16.70;99.90;;;;;;4842619;29;20057;-82
2022/06/29 02:43:21;;;;;;;19.90;13.30;;;16.70;99.90;;;;;;4843645;29;20053;-82
2022/06/29 02:45:52;;;;;;;15.80;11.80;;;16.60;99.90;;;;;;4837987;29;20061;-86
2022/06/29 02:48:20;;;;;;;;;;;16.60;99.90;;;;;;4826233;29;20054;-82
2022/06/29 02:50:48;;;;;;;13.82;11.63;;;16.70;99.90;;;;;;4840091;29;19928;-82
2022/06/29 02:53:20;;;;;;;13.60;9.52;;;16.70;99.90;;;;;;4843179;29;20519;-82
2022/06/29 02:55:48;;;;;;;10.90;9.23;;;16.70;99.90;;;;;;4826877;29;20412;-82
2022/06/29 02:58:16;;;;;;;17.88;12.00;;;16.70;99.90;;;;;;4843399;29;20512;-82
2022/06/29 03:00:44;;;;;;;13.68;10.35;;;16.70;99.90;;;;;;4843807;29;20050;-82
2022/06/29 03:03:12;;;;;;;12.73;10.45;;;16.70;99.90;;;;;;4843859;29;20054;-82
2022/06/29 03:05:40;;;;;;;17.70;12.75;;;16.80;99.90;;;;;;4843507;29;20060;-82
2022/06/29 03:08:19;;;;;;;11.85;9.43;;;16.70;99.90;;;;;;4842200;29;20073;-82
2022/06/29 03:11:17;;;;;;;15.85;10.98;;;16.80;99.90;;;;;;4827459;29;20057;-82
2022/06/29 03:14:05;;;;;;;13.32;11.55;;;16.70;99.90;;;;;;4843487;29;20057;-82
2022/06/29 03:16:32;;;;;;;14.43;10.73;;;16.70;99.90;;;;;;4842879;29;20050;-83
2022/06/29 03:19:01;;;;;;;13.45;9.15;;;16.70;99.90;;;;;;4834937;29;20075;-83
2022/06/29 03:21:32;;;;;;;19.00;10.70;;;16.70;99.90;;;;;;4825065;29;20401;-83
2022/06/29 03:24:05;;;;;;;15.82;11.68;;;16.70;99.90;;;;;;4824404;29;20072;-82
2022/06/29 03:26:33;;;;;;;15.70;11.25;;;16.70;99.90;;;;;;4834543;29;20050;-82
2022/06/29 03:29:06;;;;;;;16.80;11.07;;;16.70;99.90;;;;;;4826750;29;20058;-85
2022/06/29 03:31:42;;;;;;;;;;;16.70;99.90;;;;;;4826721;29;20825;-86
2022/06/29 03:34:10;;;;;;;15.57;11.90;;;16.80;99.90;;;;;;4825969;29;19928;-85
2022/06/29 03:36:38;;;;;;;13.02;9.77;;;16.80;99.90;;;;;;4843451;29;20519;-84
2022/06/29 03:39:06;;;;;;;19.33;11.68;;;16.80;99.90;;;;;;4841689;29;20053;-85
2022/06/29 03:41:34;;;;;;;16.30;12.15;;;16.70;99.90;;;;;;4825945;29;20050;-84
2022/06/29 03:44:03;;;;;;;15.77;11.85;;;16.70;99.90;;;;;;4827003;29;20058;-84
2022/06/29 03:46:31;;;;;;;16.02;12.85;;;16.70;99.90;;;;;;4842556;29;20054;-85
2022/06/29 03:48:59;;;;;;;16.20;11.75;;;16.70;99.90;;;;;;4839179;29;20050;-85
2022/06/29 03:51:27;;;;;;;16.27;13.07;;;16.70;99.90;;;;;;4840681;29;20050;-85
2022/06/29 03:53:55;;;;;;;12.73;10.15;;;16.70;99.90;;;;;;4810854;29;20052;-84
2022/06/29 03:56:23;;;;;;;15.63;12.05;;;16.70;99.90;;;;;;4841702;29;20053;-84
2022/06/29 03:58:58;;;;;;;16.10;12.43;;;16.80;99.90;;;;;;4842352;29;20058;-84
2022/06/29 04:01:26;;;;;;;13.40;11.40;;;16.80;99.90;;;;;;4841739;29;20054;-84
2022/06/29 04:03:56;;;;;;;13.02;9.43;;;16.80;99.90;;;;;;4829543;29;20043;-84
2022/06/29 04:06:24;;;;;;;15.38;10.50;;;16.80;99.90;;;;;;4835932;29;20050;-84
2022/06/29 04:08:52;;;;;;;21.10;9.93;;;16.90;99.90;;;;;;4842251;29;20057;-83
2022/06/29 04:14:06;;;;;;;17.80;9.77;;;16.80;99.90;;;;;;4825951;29;20061;-83
2022/06/29 04:16:38;;;;;;;11.18;9.40;;;16.90;99.90;;;;;;4842862;29;20057;-84
2022/06/29 04:19:11;;;;;;;13.73;9.60;;;16.80;99.90;;;;;;4842305;29;20050;-85
2022/06/29 04:21:39;;;;;;;11.55;9.65;;;16.80;99.90;;;;;;4809359;29;20070;-83
2022/06/29 04:24:07;;;;;;;14.23;10.15;;;16.80;99.90;;;;;;4824348;29;20059;-85
2022/06/29 04:26:37;;;;;;;11.05;9.43;;;16.80;99.90;;;;;;4820022;29;20057;-84
2022/06/29 04:29:11;;;;;;;11.10;8.90;;;16.80;99.90;;;;;;4831276;29;20397;-85
2022/06/29 04:31:39;;;;;;;15.27;10.80;;;16.80;99.90;;;;;;4819402;29;20077;-85
2022/06/29 04:34:10;;;;;;;10.68;8.80;;;16.80;99.90;;;;;;4825352;29;20045;-84
2022/06/29 04:36:38;;;;;;;16.63;11.75;;;16.80;99.90;;;;;;4836064;29;20053;-83
2022/06/29 04:39:12;;;;;;;13.02;10.65;;;16.80;99.90;;;;;;4828686;29;20055;-90
2022/06/29 04:41:47;;;;;;;16.13;11.10;;;16.80;99.90;;;;;;4828397;29;20496;-89
2022/06/29 04:44:15;;;;;;;13.95;9.65;;;16.80;99.90;;;;;;4840903;29;20061;-83
2022/06/29 04:46:43;;;;;;;9.20;8.32;;;16.80;99.90;;;;;;4840996;29;20049;-84
2022/06/29 04:49:12;;;;;;;17.40;11.82;;;16.80;99.90;;;;;;4823651;29;20050;-84
2022/06/29 04:51:39;;;;;;;11.93;9.77;;;16.80;99.90;;;;;;4831318;29;20034;-85
2022/06/29 04:54:07;;;;;;;13.38;10.82;;;16.90;99.90;;;;;;4840227;29;20050;-84
2022/06/29 04:56:36;;;;;;;12.18;10.93;;;16.90;99.90;;;;;;4841251;29;20053;-88
2022/06/29 04:59:04;;;;;;;12.00;10.68;;;16.80;99.90;;;;;;4839751;29;20053;-85
2022/06/29 05:01:33;;;;;;;12.32;9.95;;;16.80;99.90;;;;;;4839145;29;20050;-85
2022/06/29 05:04:03;;;;;;;15.75;10.45;;;16.70;99.90;;;;;;4822051;29;20065;-84
2022/06/29 05:06:35;;;;;;;12.60;9.63;;;16.80;99.90;;;;;;4838853;29;20038;-85
2022/06/29 05:09:03;;;;;;;14.82;10.20;;;16.70;99.90;;;;;;4823617;29;20050;-84
2022/06/29 05:11:31;;;;;;;14.82;9.55;;;16.70;99.90;;;;;;4836978;29;20060;-85
2022/06/29 05:14:00;;;;;;;14.02;10.30;;;16.80;99.90;;;;;;4809393;29;20050;-85
2022/06/29 05:16:30;;;;;;;16.52;10.15;;;16.80;99.90;;;;;;4840354;29;20045;-85
2022/06/29 05:19:04;;;;;;;11.90;9.60;;;16.90;99.90;;;;;;4822685;29;20083;-85
2022/06/29 05:21:37;;;;;;;18.55;9.00;;;16.90;99.90;;;;;;4840594;29;20079;-85
2022/06/29 05:24:05;;;;;;;12.90;9.63;;;16.90;99.90;;;;;;4840263;29;20054;-85
2022/06/29 05:26:37;;;;;;;8.93;8.02;;;16.90;99.90;;;;;;4839540;29;20658;-86
2022/06/29 05:29:06;;;;;;;10.77;8.85;;;16.80;99.90;;;;;;4840298;29;20054;-85
2022/06/29 05:31:43;;;;;;;14.07;7.93;;;16.90;99.90;;;;;;4846071;29;20046;-89
2022/06/29 05:34:35;;;;;;;12.07;8.32;;;16.80;99.90;;;;;;4852389;29;20057;-86
2022/06/29 05:37:08;;;;;;;12.88;8.98;;;16.80;99.90;;;;;;4840293;29;20058;-90
2022/06/29 05:39:39;;;;;;;12.40;8.30;;;16.70;99.90;;;;;;4824325;29;20432;-87
2022/06/29 05:42:15;;;;;;;13.40;7.47;;;16.70;99.90;;;;;;4834014;29;20789;-87
2022/06/29 05:44:43;;;;;;;8.95;7.53;;;16.80;99.90;;;;;;4825518;29;20053;-87
2022/06/29 05:47:11;;;;;;;14.82;8.50;;;16.80;99.90;;;;;;4818417;29;20057;-87
2022/06/29 05:49:39;;;;;;;9.88;7.82;;;16.80;99.90;;;;;;4838999;29;20060;-87
2022/06/29 05:52:09;;;;;;;11.75;8.70;;;16.90;99.90;;;;;;4840186;29;20052;-88
2022/06/29 05:54:46;;;;;;;9.75;7.18;;;16.90;99.90;;;;;;4838547;29;20054;-91
2022/06/29 05:57:19;;;;;;;12.27;8.00;;;17.00;99.90;;;;;;4840004;29;20050;-87
2022/06/29 06:00:07;;;;;;;8.27;6.70;;;17.10;99.90;;;;;;4809093;29;20050;-88
2022/06/29 06:02:41;;;;;;;7.85;6.10;;;17.10;99.90;;;;;;4792129;29;20047;-87
2022/06/29 06:05:09;;;;;;;7.53;6.10;;;17.10;99.90;;;;;;4848497;29;20417;-87
2022/06/29 06:07:39;;;;;;;9.68;6.28;;;17.10;99.90;;;;;;4808679;29;20061;-87
2022/06/29 06:10:07;;;;;;;7.25;6.55;;;17.20;99.90;;;;;;4838122;29;20049;-85
2022/06/29 06:12:35;;;;;;;7.75;6.90;;;17.20;99.90;;;;;;4839449;29;20412;-86
2022/06/29 06:15:03;;;;;;;11.57;7.00;;;17.30;99.90;;;;;;4845678;29;20401;-86
2022/06/29 06:17:32;;;;;;;9.57;6.40;;;17.30;99.90;;;;;;4811780;29;20049;-88
2022/06/29 06:20:03;;;;;;;6.30;5.68;;;17.20;99.90;;;;;;4841367;29;20058;-87
2022/06/29 06:22:33;;;;;;;10.57;6.50;;;17.20;99.90;;;;;;4826972;29;20045;-88
2022/06/29 06:25:05;;;;;;;9.48;7.20;;;17.20;99.90;;;;;;4843851;29;20056;-87
2022/06/29 06:27:41;;;;;;;8.38;7.53;;;17.20;99.90;;;;;;4827364;29;20050;-89
2022/06/29 06:30:22;;;;;;;9.23;6.70;;;17.20;99.90;;;;;;4794393;29;20358;-86
2022/06/29 06:32:51;;;;;;;6.00;4.70;;;17.10;99.90;;;;;;4842814;29;20053;-86
2022/06/29 06:35:22;;;;;;;12.13;8.15;;;17.20;99.90;;;;;;4835941;29;20051;-87
2022/06/29 06:37:53;;;;;;;5.90;5.32;;;17.20;99.90;;;;;;4840126;29;20485;-86
2022/06/29 06:43:08;;;;;;;13.20;8.73;;;17.20;99.90;;;;;;4843534;29;20050;-85
2022/06/29 06:45:36;;;;;;;11.80;8.27;;;17.20;99.90;;;;;;4839232;29;20061;-86
2022/06/29 06:48:05;;;;;;;14.98;8.48;;;17.20;99.90;;;;;;4840445;29;20049;-86
2022/06/29 06:50:34;;;;;;;11.55;8.77;;;17.20;99.90;;;;;;4839130;29;20084;-86
2022/06/29 06:53:03;;;;;;;9.00;8.10;;;17.20;99.90;;;;;;4843554;29;20045;-86
2022/06/29 06:55:31;;;;;;;8.40;7.50;;;17.20;99.90;;;;;;4841392;29;20042;-87
2022/06/29 06:58:01;;;;;;;9.40;6.93;;;17.20;99.90;;;;;;4841833;29;20053;-86
2022/06/29 07:00:30;;;;;;;13.17;8.53;;;17.10;99.90;;;;;;4842791;29;20062;-86
2022/06/29 07:02:58;;;;;;;9.65;8.73;;;17.10;99.90;;;;;;4843176;29;20638;-87
2022/06/29 07:05:27;;;;;;;13.63;9.85;;;17.20;99.90;;;;;;4812762;29;20061;-87
2022/06/29 07:07:56;;;;;;;9.88;8.85;;;17.20;99.90;;;;;;4841574;29;20061;-90
2022/06/29 07:10:31;;;;;;;10.30;9.25;;;17.30;99.90;;;;;;4841579;29;20054;-87
2022/06/29 07:13:12;;;;;;;10.45;8.65;;;17.30;99.90;;;;;;4844063;29;20053;-91
2022/06/29 07:15:42;;;;;;;11.77;9.30;;;17.20;99.90;;;;;;4826600;29;20409;-88
2022/06/29 07:18:11;;;;;;;13.48;10.48;;;17.30;99.90;;;;;;4821322;29;20057;-86
2022/06/29 07:20:39;;;;;;;13.35;10.00;;;17.30;99.90;;;;;;4824109;29;20576;-88
2022/06/29 07:23:07;;;;;;;9.02;7.80;;;17.40;99.90;;;;;;4825506;29;20052;-87
2022/06/29 07:25:42;;;;;;;14.80;8.38;;;17.40;99.90;;;;;;4834554;29;20069;-89
2022/06/29 07:28:24;;;;;;;10.88;9.65;;;17.40;99.90;;;;;;4845427;29;20058;-86
2022/06/29 07:30:52;;;;;;;13.30;9.18;;;17.50;99.90;;;;;;4823652;29;20409;-87
2022/06/29 07:33:21;;;;;;;9.43;8.52;;;17.60;99.90;;;;;;4841355;29;20444;-87
2022/06/29 07:35:49;;;;;;;10.18;8.93;;;17.80;99.90;;;;;;4840585;29;20054;-86
2022/06/29 07:38:19;;;;;;;10.40;8.90;;;17.80;99.90;;;;;;4842199;29;20053;-87
2022/06/29 07:40:49;;;;;;;12.43;11.18;;;17.90;99.90;;;;;;4840605;29;20061;-86
2022/06/29 07:43:19;;;;;;;10.05;8.32;;;17.90;99.90;;;;;;4840773;29;20058;-86
2022/06/29 07:45:49;;;;;;;9.43;8.30;;;18.00;99.90;;;;;;4840346;29;20042;-85
2022/06/29 07:48:18;;;;;;;9.88;8.88;;;18.00;99.90;;;;;;4841863;29;20654;-85
2022/06/29 07:50:46;;;;;;;9.48;8.52;;;18.10;99.90;;;;;;4842057;29;20046;-85
2022/06/29 07:53:14;;;;;;;8.35;7.53;;;18.10;99.90;;;;;;4841345;29;20547;-85
2022/06/29 07:55:44;;;;;;;11.07;8.10;;;18.10;99.90;;;;;;4815750;29;20054;-85
2022/06/29 07:58:13;;;;;;;15.48;10.00;;;18.00;99.90;;;;;;4825875;29;20077;-85
2022/06/29 08:00:43;;;;;;;11.07;9.40;;;18.00;99.90;;;;;;4842495;29;20046;-85
2022/06/29 08:03:11;;;;;;;9.45;8.43;;;18.00;99.90;;;;;;4842200;29;20045;-84
2022/06/29 08:05:46;;;;;;;9.55;8.20;;;18.00;99.90;;;;;;4840661;29;20062;-85
2022/06/29 09:42:14;;;;;;;7.38;6.25;;;19.70;99.90;;;;;;4901160;24;20049;-87
2022/06/29 09:46:15;;;;;;;7.82;7.05;;;19.80;99.90;;;;;;4868122;29;20049;-87
2022/06/29 09:53:18;;;;;;;7.13;5.93;;;20.00;99.90;;;;;;5189197;23;20058;-86
2022/06/29 09:56:22;;;;;;;9.70;7.90;;;20.10;99.90;;;;;;4840407;29;20046;-84
2022/06/29 10:15:12;;;;;;;8.20;4.80;;;20.40;99.90;;;;;;4797466;29;20525;-86
2022/06/29 11:04:15;;;;;;;;;;;;;;;;;;;;;
2022/06/29 11:19:50;;;;;;;6.63;4.53;;;20.80;99.90;;;;;;4798398;29;20060;-86
2022/06/29 11:22:59;;;;;;;5.22;4.75;;;21.10;99.90;;;;;;4799403;29;20688;-87
2022/06/29 11:25:49;;;;;;;16.45;4.32;;;21.40;99.90;;;;;;4810527;29;21231;-87
2022/06/29 11:28:33;;;;;;;5.75;5.15;;;21.50;99.90;;;;;;4822602;29;20500;-88
2022/06/29 11:31:41;;;;;;;;;;;21.60;99.90;;;;;;4828293;29;20054;-88
2022/06/29 11:39:07;;;;;;;11.23;6.32;;;21.60;99.90;;;;;;4790722;29;20046;-88
2022/06/29 11:45:59;;;;;;;4.97;4.57;;;21.60;99.90;;;;;;4841527;29;20065;-84
2022/06/29 11:48:29;;;;;;;5.85;5.35;;;21.60;99.90;;;;;;4838702;29;20806;-85
2022/06/29 12:00:45;;;;;;;12.88;6.85;;;21.80;99.90;;;;;;4886924;23;20634;-85
2022/06/29 12:03:22;;;;;;;6.97;6.38;;;21.60;99.90;;;;;;4859525;29;20053;-83
2022/06/29 12:05:58;;;;;;;7.80;5.90;;;21.50;99.90;;;;;;4844044;29;20041;-81
2022/06/29 12:12:22;;;;;;;6.97;6.28;;;21.10;99.90;;;;;;4858674;29;20049;-87
2022/06/29 12:15:03;;;;;;;7.95;6.43;;;20.90;99.90;;;;;;4816743;29;20164;-88
2022/06/29 12:25:19;;;;;;;;;;;;;;;;;;;;;
2022/06/29 12:30:12;;;;;;;;;;;;;;;;;;;;;
2022/06/29 12:34:12;;;;;;;7.85;6.20;;;21.00;99.90;;;;;;4746232;30;20054;-89
2022/06/29 12:37:43;;;;;;;6.60;5.25;;;20.90;99.90;;;;;;4796464;29;20058;-90
2022/06/29 12:49:26;;;;;;;;;;;;;;;;;;;;;
2022/06/29 12:52:23;;;;;;;7.60;6.80;;;21.00;99.90;;;;;;4857906;29;20514;-89
2022/06/29 12:54:57;;;;;;;8.10;7.30;;;21.00;99.90;;;;;;4813995;29;20419;-89
2022/06/29 12:57:29;;;;;;;6.82;5.93;;;21.00;99.90;;;;;;4827980;29;20058;-87
2022/06/29 12:59:57;;;;;;;7.68;6.80;;;21.10;99.90;;;;;;4844204;29;20056;-89
2022/06/29 13:02:31;;;;;;;11.82;6.60;;;21.10;99.90;;;;;;4845164;29;20053;-89
2022/06/29 13:05:03;;;;;;;5.72;5.18;;;21.00;99.90;;;;;;4835019;29;20076;-88
2022/06/29 13:07:44;;;;;;;8.57;5.90;;;21.10;99.90;;;;;;4858653;29;20042;-88
2022/06/29 13:10:40;;;;;;;14.20;7.65;;;21.10;99.90;;;;;;4851515;29;20061;-89
2022/06/29 13:13:53;;;;;;;6.57;6.00;;;21.20;99.90;;;;;;4843108;29;20054;-90
2022/06/29 13:16:30;;;;;;;7.75;6.43;;;21.20;99.90;;;;;;4870068;29;20377;-89
2022/06/29 13:18:58;;;;;;;6.57;5.97;;;21.30;99.90;;;;;;4842454;29;20408;-89
2022/06/29 13:21:27;;;;;;;8.57;5.30;;;21.30;99.90;;;;;;4842918;29;20073;-88
2022/06/29 13:23:54;;;;;;;7.47;6.75;;;21.30;99.90;;;;;;4827806;29;20155;-87
2022/06/29 13:26:22;;;;;;;11.75;6.43;;;21.30;99.90;;;;;;4812371;29;20057;-86
2022/06/29 13:28:51;;;;;;;8.57;5.68;;;21.30;99.90;;;;;;4859232;29;20057;-87
2022/06/29 13:31:19;;;;;;;12.00;7.03;;;21.30;99.90;;;;;;4812558;29;20061;-88
2022/06/29 13:33:47;;;;;;;6.75;6.07;;;21.30;99.90;;;;;;4842515;29;20061;-87
2022/06/29 13:36:15;;;;;;;10.05;6.28;;;21.30;99.90;;;;;;4827504;29;20554;-86
2022/06/29 13:38:43;;;;;;;8.98;6.97;;;21.40;99.90;;;;;;4857326;29;20523;-86
2022/06/29 13:41:12;;;;;;;8.50;6.28;;;21.40;99.90;;;;;;4857178;29;20066;-87
2022/06/29 13:43:40;;;;;;;13.52;8.15;;;21.50;99.90;;;;;;4845995;29;20062;-85
2022/06/29 13:46:22;;;;;;;7.45;6.75;;;21.50;99.90;;;;;;4855163;29;20057;-87
2022/06/29 13:48:52;;;;;;;7.85;7.15;;;21.60;99.90;;;;;;4840481;29;20061;-86
2022/06/29 13:51:21;;;;;;;16.33;7.43;;;21.60;99.90;;;;;;4855041;29;20504;-86
2022/06/29 13:53:49;;;;;;;7.07;6.47;;;21.70;99.90;;;;;;4824898;29;20404;-85
2022/06/29 13:56:17;;;;;;;7.28;6.50;;;21.80;99.90;;;;;;4840032;29;20571;-86
2022/06/29 13:58:45;;;;;;;6.88;6.25;;;21.90;99.90;;;;;;4854648;29;20061;-86
2022/06/29 14:01:14;;;;;;;6.93;6.22;;;21.90;99.90;;;;;;4840016;29;20062;-88
2022/06/29 14:03:49;;;;;;;8.32;7.63;;;21.80;99.90;;;;;;4846661;29;20053;-87
2022/06/29 14:06:18;;;;;;;8.45;7.05;;;21.70;99.90;;;;;;4854870;29;20736;-85
2022/06/29 14:08:46;;;;;;;6.25;5.68;;;21.70;99.90;;;;;;4840061;29;20065;-86
2022/06/29 14:11:31;;;;;;;9.35;6.10;;;21.60;99.90;;;;;;4842435;29;20128;-87
2022/06/29 14:14:08;;;;;;;7.85;7.05;;;21.60;99.90;;;;;;4857658;29;20526;-86
2022/06/29 14:16:47;;;;;;;7.25;6.03;;;21.50;99.90;;;;;;4859942;29;20053;-88
2022/06/29 14:19:21;;;;;;;5.80;5.22;;;21.50;99.90;;;;;;4842912;29;20053;-85
2022/06/29 14:21:54;;;;;;;5.97;5.45;;;21.40;99.90;;;;;;4836891;29;20056;-87
2022/06/29 14:24:33;;;;;;;9.02;5.93;;;21.40;99.90;;;;;;4843777;29;20053;-88
2022/06/29 14:27:14;;;;;;;6.43;5.82;;;21.30;99.90;;;;;;4833572;29;20053;-85
2022/06/29 14:32:41;;;;;;;12.02;7.38;;;21.20;99.90;;;;;;4843256;29;20061;-87
2022/06/29 14:35:15;;;;;;;7.95;7.15;;;21.20;99.90;;;;;;4827264;29;20054;-87
2022/06/29 14:37:43;;;;;;;7.68;6.22;;;21.10;99.90;;;;;;4861540;29;20052;-89
2022/06/29 14:40:17;;;;;;;18.95;8.27;;;21.10;99.90;;;;;;4861634;29;20053;-89
2022/06/29 14:42:54;;;;;;;9.05;6.05;;;21.00;99.90;;;;;;4861815;29;20065;-87
2022/06/29 14:45:29;;;;;;;15.52;8.43;;;20.90;99.90;;;;;;4831964;29;20061;-88
2022/06/29 14:47:57;;;;;;;7.97;6.95;;;20.90;99.90;;;;;;4877188;29;20049;-88
2022/06/29 14:50:31;;;;;;;8.52;6.63;;;20.90;99.90;;;;;;4847862;29;20049;-88
2022/06/29 14:52:59;;;;;;;8.50;7.60;;;20.80;99.90;;;;;;4863249;29;20065;-89
2022/06/29 14:55:32;;;;;;;7.13;6.53;;;20.80;99.90;;;;;;4847668;29;20070;-87
2022/06/29 14:58:06;;;;;;;6.82;6.15;;;20.70;99.90;;;;;;4839518;29;20056;-87
2022/06/29 15:00:38;;;;;;;9.23;7.43;;;20.70;99.90;;;;;;4831358;29;20065;-86
2022/06/29 15:03:08;;;;;;;7.93;7.22;;;20.60;99.90;;;;;;4860577;29;20550;-88
2022/06/29 15:05:36;;;;;;;14.85;10.55;;;20.60;99.90;;;;;;4845490;29;20054;-88
2022/06/29 15:08:05;;;;;;;10.95;9.85;;;20.60;99.90;;;;;;4830788;29;20080;-88
2022/06/29 15:10:41;;;;;;;7.97;7.18;;;20.50;99.90;;;;;;4846430;29;20057;-87
2022/06/29 15:13:31;;;;;;;9.38;8.43;;;20.50;99.90;;;;;;4817549;29;20048;-88
2022/06/29 15:16:00;;;;;;;12.70;8.85;;;20.50;99.90;;;;;;4846504;29;20057;-89
2022/06/29 15:19:14;;;;;;;8.70;7.90;;;20.50;99.90;;;;;;4821585;29;20042;-90
2022/06/29 15:22:47;;;;;;;15.77;8.85;;;20.40;99.90;;;;;;4844969;29;20053;-91
2022/06/29 15:25:48;;;;;;;;;;;20.40;99.90;;;;;;4830998;29;20042;-91
2022/06/29 15:28:38;;;;;;;10.80;8.68;;;20.40;99.90;;;;;;4847922;29;20297;-92
2022/06/29 15:31:38;;;;;;;10.07;9.07;;;20.40;99.90;;;;;;4846637;29;20097;-90
2022/06/29 15:40:00;;;;;;;13.77;9.77;;;20.30;99.90;;;;;;4860991;29;20831;-88
2022/06/29 15:42:28;;;;;;;9.85;8.38;;;20.20;99.90;;;;;;4876403;29;20056;-90
2022/06/29 15:45:28;;;;;;;19.20;8.35;;;20.20;99.90;;;;;;4861103;29;20058;-87
2022/06/29 15:47:58;;;;;;;7.65;6.88;;;20.10;99.90;;;;;;4828725;29;20057;-90
2022/06/29 15:51:00;;;;;;;7.38;6.65;;;20.00;99.90;;;;;;4860793;29;20060;-90
2022/06/29 15:57:18;;;;;;;;;;;;;;;;;;;;;
2022/06/29 16:00:20;;;;;;;7.65;6.95;;;19.80;99.90;;;;;;4834185;29;20050;-91
2022/06/29 16:02:48;;;;;;;10.13;5.60;;;19.80;99.90;;;;;;4858076;29;20524;-92
2022/06/29 16:05:44;;;;;;;5.78;5.25;;;19.80;99.90;;;;;;4842796;29;20054;-90
2022/06/29 16:08:41;;;;;;;7.93;7.07;;;19.80;99.90;;;;;;4811192;29;20054;-91
2022/06/29 16:11:11;;;;;;;8.13;7.22;;;19.80;99.90;;;;;;4840829;29;20058;-90
2022/06/29 16:13:48;;;;;;;7.88;7.07;;;19.90;99.90;;;;;;4825220;29;20058;-91
2022/06/29 16:16:16;;;;;;;10.35;8.88;;;19.80;99.90;;;;;;4841471;29;20543;-91
2022/06/29 16:18:44;;;;;;;9.38;8.15;;;19.90;99.90;;;;;;4839975;29;20808;-89
2022/06/29 16:21:12;;;;;;;10.35;8.40;;;19.90;99.90;;;;;;4841048;29;20058;-90
2022/06/29 16:23:40;;;;;;;10.45;9.48;;;19.90;99.90;;;;;;4842000;29;20050;-89
2022/06/29 16:26:20;;;;;;;13.80;9.43;;;19.90;99.90;;;;;;4856322;29;20053;-90
2022/06/29 16:29:19;;;;;;;11.85;9.70;;;19.90;99.90;;;;;;4853054;29;20511;-92
2022/06/29 16:31:48;;;;;;;12.48;9.85;;;19.90;99.90;;;;;;4841327;29;20058;-90
2022/06/29 16:34:16;;;;;;;11.23;10.02;;;20.00;99.90;;;;;;4811213;29;20057;-91
2022/06/29 16:36:45;;;;;;;23.05;10.45;;;20.00;99.90;;;;;;4827197;29;20058;-89
2022/06/29 16:39:20;;;;;;;14.32;10.77;;;20.00;99.90;;;;;;4858725;29;20054;-91
2022/06/29 16:41:53;;;;;;;11.20;9.68;;;20.00;99.90;;;;;;4859433;29;20049;-89
2022/06/29 16:44:22;;;;;;;13.18;9.45;;;20.00;99.90;;;;;;4860019;29;20041;-88
2022/06/29 16:46:51;;;;;;;11.23;9.82;;;20.00;99.90;;;;;;4837735;29;20049;-89
2022/06/29 16:49:19;;;;;;;13.60;11.13;;;19.90;99.90;;;;;;4859104;29;20592;-88
2022/06/29 16:51:48;;;;;;;10.80;9.60;;;19.90;99.90;;;;;;4843293;29;20075;-88
2022/06/29 16:54:28;;;;;;;12.25;9.52;;;19.90;99.90;;;;;;4844620;29;20053;-88
2022/06/29 16:56:56;;;;;;;11.93;9.38;;;19.90;99.90;;;;;;4859610;29;20080;-89
2022/06/29 16:59:25;;;;;;;13.02;9.07;;;19.90;99.90;;;;;;4839971;29;20054;-89
2022/06/29 17:01:53;;;;;;;9.80;8.90;;;19.90;99.90;;;;;;4840222;29;20404;-87
2022/06/29 17:04:21;;;;;;;12.82;11.25;;;19.90;99.90;;;;;;4856479;29;20053;-88
2022/06/29 17:06:48;;;;;;;11.52;10.27;;;19.90;99.90;;;;;;4840510;29;20053;-88
2022/06/29 17:09:17;;;;;;;10.77;9.73;;;19.90;99.90;;;;;;4840334;29;20060;-87
2022/06/29 17:11:51;;;;;;;13.23;9.68;;;20.00;99.90;;;;;;4841375;29;20815;-88
2022/06/29 17:14:21;;;;;;;11.68;10.50;;;20.00;99.90;;;;;;4837042;29;20054;-88